Bangor Submarine Base, Washington
Current Conditions -  °F | °C
As of 8:15 PM on Sunday 21 Dec 2014 (Local Time) from KPWT Reporting Station
Overcast Overcast  
Wind Chill: 43°   Ceiling: 11000
Heat Index: 48°   Visibility: 10mi
Dew Point: 46°   Wind: 14mph
Humidity: 93%   Direction: 220°SW
Pressure: 30.09"   Gusts: NA
Location:  47.7228°N, 122.714°W
Report Text: KPWT 220415Z AUTO 22012KT 10SM OVC110 09/08 A3009 RMK AO1
Loading
Personal Weather Stations






























Interactive Weather Map New forecast layout! Learn more

10-Day Weather Forecast

Advertisements
Track Severe Weather on mobile